sensor_id;sensor_type;location;lat;lon;timestamp;P1;durP1;ratioP1;P2;durP2;ratioP2
10910;SDS011;5508;49.150;11.030;2022-07-29T00:02:15;5.03;;;2.97;;
10910;SDS011;5508;49.150;11.030;2022-07-29T00:05:16;4.83;;;3.07;;
10910;SDS011;5508;49.150;11.030;2022-07-29T00:08:16;3.77;;;2.87;;
10910;SDS011;5508;49.150;11.030;2022-07-29T00:11:17;4.53;;;3.30;;
10910;SDS011;5508;49.150;11.030;2022-07-29T00:14:18;3.23;;;2.83;;
10910;SDS011;5508;49.150;11.030;2022-07-29T00:17:18;3.83;;;2.97;;
10910;SDS011;5508;49.150;11.030;2022-07-29T00:20:19;5.10;;;2.83;;
10910;SDS011;5508;49.150;11.030;2022-07-29T00:23:20;3.13;;;2.63;;
10910;SDS011;5508;49.150;11.030;2022-07-29T00:26:20;3.50;;;2.80;;
10910;SDS011;5508;49.150;11.030;2022-07-29T00:29:21;4.17;;;2.60;;
10910;SDS011;5508;49.150;11.030;2022-07-29T00:32:22;4.37;;;2.97;;
10910;SDS011;5508;49.150;11.030;2022-07-29T00:35:22;3.33;;;2.60;;
10910;SDS011;5508;49.150;11.030;2022-07-29T00:38:41;2.60;;;2.30;;
10910;SDS011;5508;49.150;11.030;2022-07-29T00:41:45;4.80;;;2.90;;
10910;SDS011;5508;49.150;11.030;2022-07-29T00:44:45;3.37;;;2.70;;
10910;SDS011;5508;49.150;11.030;2022-07-29T00:47:46;4.77;;;2.70;;
10910;SDS011;5508;49.150;11.030;2022-07-29T00:50:46;3.43;;;2.33;;
10910;SDS011;5508;49.150;11.030;2022-07-29T00:53:49;3.10;;;2.63;;
10910;SDS011;5508;49.150;11.030;2022-07-29T00:56:50;3.10;;;2.50;;
10910;SDS011;5508;49.150;11.030;2022-07-29T00:59:51;5.60;;;2.80;;
10910;SDS011;5508;49.150;11.030;2022-07-29T01:02:51;4.93;;;3.10;;
10910;SDS011;5508;49.150;11.030;2022-07-29T01:05:52;5.27;;;2.90;;
10910;SDS011;5508;49.150;11.030;2022-07-29T01:08:54;4.07;;;3.03;;
10910;SDS011;5508;49.150;11.030;2022-07-29T01:11:55;5.90;;;3.00;;
10910;SDS011;5508;49.150;11.030;2022-07-29T01:14:56;3.80;;;2.37;;
10910;SDS011;5508;49.150;11.030;2022-07-29T01:17:59;4.23;;;2.90;;
10910;SDS011;5508;49.150;11.030;2022-07-29T01:27:54;3.10;;;2.80;;
10910;SDS011;5508;49.150;11.030;2022-07-29T01:31:20;5.30;;;2.90;;
10910;SDS011;5508;49.150;11.030;2022-07-29T01:41:02;3.20;;;2.80;;
10910;SDS011;5508;49.150;11.030;2022-07-29T01:44:10;5.53;;;2.90;;
10910;SDS011;5508;49.150;11.030;2022-07-29T01:47:19;5.30;;;2.90;;
10910;SDS011;5508;49.150;11.030;2022-07-29T01:50:25;4.40;;;3.07;;
10910;SDS011;5508;49.150;11.030;2022-07-29T01:53:38;3.67;;;3.10;;
10910;SDS011;5508;49.150;11.030;2022-07-29T01:56:55;4.97;;;3.13;;
10910;SDS011;5508;49.150;11.030;2022-07-29T01:59:58;3.33;;;3.03;;
10910;SDS011;5508;49.150;11.030;2022-07-29T02:03:02;6.00;;;3.43;;
10910;SDS011;5508;49.150;11.030;2022-07-29T02:06:07;6.00;;;3.37;;
10910;SDS011;5508;49.150;11.030;2022-07-29T02:09:11;5.87;;;3.30;;
10910;SDS011;5508;49.150;11.030;2022-07-29T02:12:14;3.57;;;3.27;;
10910;SDS011;5508;49.150;11.030;2022-07-29T02:15:17;4.87;;;3.37;;
10910;SDS011;5508;49.150;11.030;2022-07-29T02:18:20;3.70;;;3.20;;
10910;SDS011;5508;49.150;11.030;2022-07-29T02:21:23;3.30;;;3.00;;
10910;SDS011;5508;49.150;11.030;2022-07-29T02:24:25;3.40;;;3.10;;
10910;SDS011;5508;49.150;11.030;2022-07-29T02:27:27;3.87;;;3.10;;
10910;SDS011;5508;49.150;11.030;2022-07-29T02:30:29;4.00;;;3.27;;
10910;SDS011;5508;49.150;11.030;2022-07-29T02:33:31;4.70;;;3.27;;
10910;SDS011;5508;49.150;11.030;2022-07-29T02:36:32;4.93;;;3.50;;
10910;SDS011;5508;49.150;11.030;2022-07-29T02:39:34;6.70;;;3.50;;
10910;SDS011;5508;49.150;11.030;2022-07-29T02:42:37;5.40;;;3.60;;
10910;SDS011;5508;49.150;11.030;2022-07-29T02:45:41;4.50;;;3.10;;
10910;SDS011;5508;49.150;11.030;2022-07-29T02:48:45;5.00;;;3.07;;
10910;SDS011;5508;49.150;11.030;2022-07-29T02:51:55;4.23;;;3.07;;
10910;SDS011;5508;49.150;11.030;2022-07-29T02:55:02;6.43;;;3.70;;
10910;SDS011;5508;49.150;11.030;2022-07-29T02:58:09;5.13;;;3.10;;
10910;SDS011;5508;49.150;11.030;2022-07-29T03:01:29;5.33;;;3.40;;
10910;SDS011;5508;49.150;11.030;2022-07-29T03:04:31;4.53;;;3.80;;
10910;SDS011;5508;49.150;11.030;2022-07-29T03:07:34;4.43;;;3.87;;
10910;SDS011;5508;49.150;11.030;2022-07-29T03:10:37;4.83;;;3.80;;
10910;SDS011;5508;49.150;11.030;2022-07-29T03:13:40;4.60;;;3.57;;
10910;SDS011;5508;49.150;11.030;2022-07-29T03:16:41;4.77;;;3.90;;
10910;SDS011;5508;49.150;11.030;2022-07-29T03:19:42;6.17;;;3.83;;
10910;SDS011;5508;49.150;11.030;2022-07-29T03:22:43;4.37;;;3.93;;
10910;SDS011;5508;49.150;11.030;2022-07-29T03:25:46;3.40;;;3.10;;
10910;SDS011;5508;49.150;11.030;2022-07-29T03:28:47;6.20;;;3.50;;
10910;SDS011;5508;49.150;11.030;2022-07-29T03:31:48;4.50;;;3.47;;
10910;SDS011;5508;49.150;11.030;2022-07-29T03:34:48;4.00;;;3.60;;
10910;SDS011;5508;49.150;11.030;2022-07-29T03:37:49;4.53;;;3.70;;
10910;SDS011;5508;49.150;11.030;2022-07-29T03:40:51;9.73;;;3.87;;
10910;SDS011;5508;49.150;11.030;2022-07-29T03:43:56;4.00;;;3.10;;
10910;SDS011;5508;49.150;11.030;2022-07-29T03:46:58;5.47;;;3.50;;
10910;SDS011;5508;49.150;11.030;2022-07-29T03:50:06;4.00;;;3.60;;
10910;SDS011;5508;49.150;11.030;2022-07-29T03:53:08;3.70;;;3.30;;
10910;SDS011;5508;49.150;11.030;2022-07-29T03:56:09;4.30;;;3.80;;
10910;SDS011;5508;49.150;11.030;2022-07-29T03:59:12;4.97;;;3.90;;
10910;SDS011;5508;49.150;11.030;2022-07-29T04:02:14;10.53;;;3.90;;
10910;SDS011;5508;49.150;11.030;2022-07-29T04:05:15;4.80;;;3.47;;
10910;SDS011;5508;49.150;11.030;2022-07-29T04:08:16;4.73;;;4.17;;
10910;SDS011;5508;49.150;11.030;2022-07-29T04:11:16;7.23;;;4.10;;
10910;SDS011;5508;49.150;11.030;2022-07-29T04:14:17;5.83;;;4.17;;
10910;SDS011;5508;49.150;11.030;2022-07-29T04:17:18;7.33;;;3.90;;
10910;SDS011;5508;49.150;11.030;2022-07-29T04:20:19;4.30;;;3.93;;
10910;SDS011;5508;49.150;11.030;2022-07-29T04:23:19;4.30;;;3.90;;
10910;SDS011;5508;49.150;11.030;2022-07-29T04:26:20;5.30;;;4.00;;
10910;SDS011;5508;49.150;11.030;2022-07-29T04:29:21;4.50;;;4.10;;
10910;SDS011;5508;49.150;11.030;2022-07-29T04:32:21;5.53;;;4.20;;
10910;SDS011;5508;49.150;11.030;2022-07-29T04:35:22;5.37;;;4.50;;
10910;SDS011;5508;49.150;11.030;2022-07-29T04:38:23;5.17;;;4.33;;
10910;SDS011;5508;49.150;11.030;2022-07-29T04:41:24;4.73;;;4.33;;
10910;SDS011;5508;49.150;11.030;2022-07-29T04:44:24;6.83;;;4.33;;
10910;SDS011;5508;49.150;11.030;2022-07-29T04:47:25;5.87;;;4.20;;
10910;SDS011;5508;49.150;11.030;2022-07-29T04:50:26;4.37;;;3.80;;
10910;SDS011;5508;49.150;11.030;2022-07-29T04:53:27;5.87;;;4.90;;
10910;SDS011;5508;49.150;11.030;2022-07-29T04:56:27;8.20;;;4.60;;
10910;SDS011;5508;49.150;11.030;2022-07-29T04:59:28;5.70;;;4.30;;
10910;SDS011;5508;49.150;11.030;2022-07-29T05:02:28;9.20;;;5.17;;
10910;SDS011;5508;49.150;11.030;2022-07-29T05:05:29;5.10;;;4.67;;
10910;SDS011;5508;49.150;11.030;2022-07-29T05:08:29;8.63;;;5.27;;
10910;SDS011;5508;49.150;11.030;2022-07-29T05:11:30;5.20;;;4.33;;
10910;SDS011;5508;49.150;11.030;2022-07-29T05:14:31;7.23;;;4.77;;
10910;SDS011;5508;49.150;11.030;2022-07-29T05:17:31;9.87;;;4.97;;
10910;SDS011;5508;49.150;11.030;2022-07-29T05:20:32;12.20;;;5.00;;
10910;SDS011;5508;49.150;11.030;2022-07-29T05:23:34;5.40;;;4.70;;
10910;SDS011;5508;49.150;11.030;2022-07-29T05:26:34;9.10;;;4.63;;
10910;SDS011;5508;49.150;11.030;2022-07-29T05:29:35;7.43;;;4.27;;
10910;SDS011;5508;49.150;11.030;2022-07-29T05:32:36;4.73;;;4.13;;
10910;SDS011;5508;49.150;11.030;2022-07-29T05:35:37;5.97;;;4.30;;
10910;SDS011;5508;49.150;11.030;2022-07-29T05:38:37;8.07;;;4.63;;
10910;SDS011;5508;49.150;11.030;2022-07-29T05:41:38;6.80;;;4.40;;
10910;SDS011;5508;49.150;11.030;2022-07-29T05:44:39;6.30;;;4.37;;
10910;SDS011;5508;49.150;11.030;2022-07-29T05:47:39;6.07;;;3.93;;
10910;SDS011;5508;49.150;11.030;2022-07-29T05:50:40;6.70;;;4.30;;
10910;SDS011;5508;49.150;11.030;2022-07-29T05:53:40;8.37;;;4.10;;
10910;SDS011;5508;49.150;11.030;2022-07-29T05:56:41;4.40;;;3.63;;
10910;SDS011;5508;49.150;11.030;2022-07-29T05:59:42;4.17;;;3.77;;
10910;SDS011;5508;49.150;11.030;2022-07-29T06:02:42;5.77;;;4.37;;
10910;SDS011;5508;49.150;11.030;2022-07-29T06:05:43;5.43;;;3.83;;
10910;SDS011;5508;49.150;11.030;2022-07-29T06:08:43;6.43;;;3.77;;
10910;SDS011;5508;49.150;11.030;2022-07-29T06:11:44;5.40;;;3.47;;
10910;SDS011;5508;49.150;11.030;2022-07-29T06:14:45;5.33;;;4.00;;
10910;SDS011;5508;49.150;11.030;2022-07-29T06:17:45;15.87;;;4.57;;
10910;SDS011;5508;49.150;11.030;2022-07-29T06:20:46;7.17;;;4.20;;
10910;SDS011;5508;49.150;11.030;2022-07-29T06:23:47;4.97;;;3.43;;
10910;SDS011;5508;49.150;11.030;2022-07-29T06:26:48;4.93;;;3.30;;
10910;SDS011;5508;49.150;11.030;2022-07-29T06:29:49;5.57;;;3.77;;
10910;SDS011;5508;49.150;11.030;2022-07-29T06:32:49;6.93;;;4.03;;
10910;SDS011;5508;49.150;11.030;2022-07-29T06:35:50;10.70;;;3.67;;
10910;SDS011;5508;49.150;11.030;2022-07-29T06:38:50;7.43;;;3.57;;
10910;SDS011;5508;49.150;11.030;2022-07-29T06:41:51;4.93;;;3.23;;
10910;SDS011;5508;49.150;11.030;2022-07-29T06:44:52;8.10;;;3.57;;
10910;SDS011;5508;49.150;11.030;2022-07-29T06:47:52;7.80;;;3.63;;
10910;SDS011;5508;49.150;11.030;2022-07-29T06:50:53;3.63;;;3.30;;
10910;SDS011;5508;49.150;11.030;2022-07-29T06:53:53;4.07;;;3.28;;
10910;SDS011;5508;49.150;11.030;2022-07-29T06:56:54;4.90;;;3.03;;
10910;SDS011;5508;49.150;11.030;2022-07-29T06:59:58;3.72;;;2.70;;
10910;SDS011;5508;49.150;11.030;2022-07-29T07:02:59;4.78;;;3.03;;
10910;SDS011;5508;49.150;11.030;2022-07-29T07:05:59;5.53;;;3.78;;
10910;SDS011;5508;49.150;11.030;2022-07-29T07:09:00;5.10;;;3.00;;
10910;SDS011;5508;49.150;11.030;2022-07-29T07:12:01;4.25;;;3.00;;
10910;SDS011;5508;49.150;11.030;2022-07-29T07:15:02;4.93;;;2.92;;
10910;SDS011;5508;49.150;11.030;2022-07-29T07:18:03;3.78;;;3.10;;
10910;SDS011;5508;49.150;11.030;2022-07-29T07:21:05;4.03;;;3.13;;
10910;SDS011;5508;49.150;11.030;2022-07-29T07:24:06;6.88;;;3.28;;
10910;SDS011;5508;49.150;11.030;2022-07-29T07:27:07;4.03;;;2.97;;
10910;SDS011;5508;49.150;11.030;2022-07-29T07:30:07;8.57;;;2.83;;
10910;SDS011;5508;49.150;11.030;2022-07-29T07:33:08;4.97;;;3.40;;
10910;SDS011;5508;49.150;11.030;2022-07-29T07:36:09;4.28;;;3.10;;
10910;SDS011;5508;49.150;11.030;2022-07-29T07:39:09;3.95;;;3.03;;
10910;SDS011;5508;49.150;11.030;2022-07-29T07:42:10;6.90;;;3.10;;
10910;SDS011;5508;49.150;11.030;2022-07-29T07:45:12;4.68;;;3.08;;
10910;SDS011;5508;49.150;11.030;2022-07-29T07:48:13;4.22;;;3.10;;
10910;SDS011;5508;49.150;11.030;2022-07-29T07:51:14;3.72;;;3.13;;
10910;SDS011;5508;49.150;11.030;2022-07-29T07:54:14;5.03;;;3.22;;
10910;SDS011;5508;49.150;11.030;2022-07-29T07:57:15;6.45;;;3.25;;
10910;SDS011;5508;49.150;11.030;2022-07-29T08:00:16;3.75;;;3.35;;
10910;SDS011;5508;49.150;11.030;2022-07-29T08:03:17;3.72;;;2.95;;
10910;SDS011;5508;49.150;11.030;2022-07-29T08:06:18;4.72;;;3.35;;
10910;SDS011;5508;49.150;11.030;2022-07-29T08:09:21;4.25;;;2.70;;
10910;SDS011;5508;49.150;11.030;2022-07-29T08:12:23;8.40;;;3.17;;
10910;SDS011;5508;49.150;11.030;2022-07-29T08:15:23;4.20;;;3.15;;
10910;SDS011;5508;49.150;11.030;2022-07-29T08:18:24;4.07;;;3.05;;
10910;SDS011;5508;49.150;11.030;2022-07-29T08:21:25;6.20;;;3.20;;
10910;SDS011;5508;49.150;11.030;2022-07-29T08:24:26;5.68;;;3.35;;
10910;SDS011;5508;49.150;11.030;2022-07-29T08:27:48;2.85;;;2.65;;
10910;SDS011;5508;49.150;11.030;2022-07-29T08:30:49;7.90;;;3.60;;
10910;SDS011;5508;49.150;11.030;2022-07-29T08:33:49;3.45;;;3.08;;
10910;SDS011;5508;49.150;11.030;2022-07-29T08:36:50;3.72;;;2.85;;
10910;SDS011;5508;49.150;11.030;2022-07-29T08:39:51;3.10;;;2.63;;
10910;SDS011;5508;49.150;11.030;2022-07-29T08:42:52;4.18;;;2.70;;
10910;SDS011;5508;49.150;11.030;2022-07-29T08:45:52;7.60;;;3.22;;
10910;SDS011;5508;49.150;11.030;2022-07-29T08:48:53;4.32;;;2.80;;
10910;SDS011;5508;49.150;11.030;2022-07-29T08:51:55;4.35;;;2.92;;
10910;SDS011;5508;49.150;11.030;2022-07-29T08:54:58;3.53;;;2.83;;
10910;SDS011;5508;49.150;11.030;2022-07-29T08:57:59;5.00;;;3.05;;
10910;SDS011;5508;49.150;11.030;2022-07-29T09:01:01;3.05;;;2.75;;
10910;SDS011;5508;49.150;11.030;2022-07-29T09:04:03;4.28;;;2.80;;
10910;SDS011;5508;49.150;11.030;2022-07-29T09:07:05;4.20;;;2.72;;
10910;SDS011;5508;49.150;11.030;2022-07-29T09:10:07;4.97;;;3.10;;
10910;SDS011;5508;49.150;11.030;2022-07-29T09:13:08;3.38;;;2.88;;
10910;SDS011;5508;49.150;11.030;2022-07-29T09:16:09;4.35;;;3.10;;
10910;SDS011;5508;49.150;11.030;2022-07-29T09:19:22;3.15;;;2.85;;
10910;SDS011;5508;49.150;11.030;2022-07-29T09:22:30;3.05;;;2.75;;
10910;SDS011;5508;49.150;11.030;2022-07-29T09:25:36;3.20;;;2.80;;
10910;SDS011;5508;49.150;11.030;2022-07-29T09:28:41;4.20;;;2.85;;
10910;SDS011;5508;49.150;11.030;2022-07-29T09:31:43;6.00;;;3.65;;
10910;SDS011;5508;49.150;11.030;2022-07-29T09:34:45;3.20;;;2.90;;
10910;SDS011;5508;49.150;11.030;2022-07-29T09:37:45;4.38;;;2.88;;
10910;SDS011;5508;49.150;11.030;2022-07-29T09:40:55;8.38;;;2.70;;
10910;SDS011;5508;49.150;11.030;2022-07-29T09:43:57;3.17;;;2.80;;
10910;SDS011;5508;49.150;11.030;2022-07-29T09:46:59;3.28;;;2.97;;
10910;SDS011;5508;49.150;11.030;2022-07-29T09:50:07;3.60;;;3.15;;
10910;SDS011;5508;49.150;11.030;2022-07-29T09:53:08;5.38;;;3.00;;
10910;SDS011;5508;49.150;11.030;2022-07-29T09:56:09;2.72;;;2.40;;
10910;SDS011;5508;49.150;11.030;2022-07-29T09:59:10;3.90;;;2.65;;
10910;SDS011;5508;49.150;11.030;2022-07-29T10:02:12;3.20;;;2.30;;
10910;SDS011;5508;49.150;11.030;2022-07-29T10:08:26;3.00;;;2.22;;
10910;SDS011;5508;49.150;11.030;2022-07-29T10:11:26;4.10;;;2.45;;
10910;SDS011;5508;49.150;11.030;2022-07-29T10:14:27;2.80;;;2.40;;
10910;SDS011;5508;49.150;11.030;2022-07-29T10:17:28;3.20;;;2.42;;
10910;SDS011;5508;49.150;11.030;2022-07-29T10:20:29;3.25;;;2.50;;
10910;SDS011;5508;49.150;11.030;2022-07-29T10:23:30;3.97;;;2.63;;
10910;SDS011;5508;49.150;11.030;2022-07-29T10:26:31;7.07;;;2.20;;
10910;SDS011;5508;49.150;11.030;2022-07-29T10:29:32;7.43;;;2.65;;
10910;SDS011;5508;49.150;11.030;2022-07-29T10:42:20;4.03;;;2.85;;
10910;SDS011;5508;49.150;11.030;2022-07-29T10:45:24;3.67;;;2.65;;
10910;SDS011;5508;49.150;11.030;2022-07-29T10:48:25;3.38;;;2.30;;
10910;SDS011;5508;49.150;11.030;2022-07-29T10:51:26;3.13;;;2.45;;
10910;SDS011;5508;49.150;11.030;2022-07-29T10:54:52;2.42;;;2.22;;
10910;SDS011;5508;49.150;11.030;2022-07-29T11:01:30;3.95;;;2.78;;
10910;SDS011;5508;49.150;11.030;2022-07-29T11:11:33;4.60;;;2.70;;
10910;SDS011;5508;49.150;11.030;2022-07-29T11:20:58;6.18;;;2.47;;
10910;SDS011;5508;49.150;11.030;2022-07-29T11:24:12;6.15;;;2.90;;
10910;SDS011;5508;49.150;11.030;2022-07-29T11:27:18;4.30;;;2.55;;
10910;SDS011;5508;49.150;11.030;2022-07-29T11:30:22;2.92;;;2.60;;
10910;SDS011;5508;49.150;11.030;2022-07-29T11:33:50;3.50;;;2.47;;
10910;SDS011;5508;49.150;11.030;2022-07-29T11:43:08;3.10;;;2.53;;
10910;SDS011;5508;49.150;11.030;2022-07-29T11:46:09;4.30;;;2.60;;
10910;SDS011;5508;49.150;11.030;2022-07-29T11:49:10;4.15;;;3.10;;
10910;SDS011;5508;49.150;11.030;2022-07-29T11:52:11;5.07;;;2.75;;
10910;SDS011;5508;49.150;11.030;2022-07-29T11:55:16;2.63;;;2.20;;
10910;SDS011;5508;49.150;11.030;2022-07-29T11:58:22;4.93;;;2.45;;
10910;SDS011;5508;49.150;11.030;2022-07-29T12:01:22;6.38;;;2.83;;
10910;SDS011;5508;49.150;11.030;2022-07-29T12:04:24;4.50;;;2.53;;
10910;SDS011;5508;49.150;11.030;2022-07-29T12:07:26;5.50;;;3.10;;
10910;SDS011;5508;49.150;11.030;2022-07-29T12:10:29;3.25;;;2.67;;
10910;SDS011;5508;49.150;11.030;2022-07-29T12:13:30;3.20;;;2.70;;
10910;SDS011;5508;49.150;11.030;2022-07-29T12:16:38;6.82;;;3.08;;
10910;SDS011;5508;49.150;11.030;2022-07-29T12:19:42;3.95;;;2.85;;
10910;SDS011;5508;49.150;11.030;2022-07-29T12:22:43;4.03;;;3.03;;
10910;SDS011;5508;49.150;11.030;2022-07-29T12:25:44;4.28;;;2.92;;
10910;SDS011;5508;49.150;11.030;2022-07-29T12:28:45;5.25;;;3.33;;
10910;SDS011;5508;49.150;11.030;2022-07-29T12:31:45;4.82;;;3.25;;
10910;SDS011;5508;49.150;11.030;2022-07-29T12:34:46;3.20;;;2.90;;
10910;SDS011;5508;49.150;11.030;2022-07-29T12:37:47;4.10;;;3.05;;
10910;SDS011;5508;49.150;11.030;2022-07-29T12:40:49;2.67;;;2.47;;
10910;SDS011;5508;49.150;11.030;2022-07-29T12:43:53;3.53;;;3.22;;
10910;SDS011;5508;49.150;11.030;2022-07-29T12:47:01;10.80;;;4.15;;
10910;SDS011;5508;49.150;11.030;2022-07-29T12:50:12;6.70;;;3.70;;
10910;SDS011;5508;49.150;11.030;2022-07-29T12:53:17;3.70;;;3.20;;
10910;SDS011;5508;49.150;11.030;2022-07-29T12:56:18;3.25;;;2.65;;
10910;SDS011;5508;49.150;11.030;2022-07-29T12:59:20;5.70;;;2.67;;
10910;SDS011;5508;49.150;11.030;2022-07-29T13:02:22;4.43;;;2.58;;
10910;SDS011;5508;49.150;11.030;2022-07-29T13:05:23;6.32;;;2.65;;
10910;SDS011;5508;49.150;11.030;2022-07-29T13:08:24;5.05;;;2.63;;
10910;SDS011;5508;49.150;11.030;2022-07-29T13:11:28;4.90;;;2.80;;
10910;SDS011;5508;49.150;11.030;2022-07-29T13:14:34;4.35;;;2.97;;
10910;SDS011;5508;49.150;11.030;2022-07-29T13:17:39;5.10;;;2.50;;
10910;SDS011;5508;49.150;11.030;2022-07-29T13:20:42;4.10;;;2.45;;
10910;SDS011;5508;49.150;11.030;2022-07-29T13:23:43;3.58;;;2.03;;
10910;SDS011;5508;49.150;11.030;2022-07-29T13:26:43;2.65;;;2.25;;
10910;SDS011;5508;49.150;11.030;2022-07-29T13:29:44;4.32;;;2.42;;
10910;SDS011;5508;49.150;11.030;2022-07-29T13:32:44;3.30;;;2.35;;
10910;SDS011;5508;49.150;11.030;2022-07-29T13:35:45;4.53;;;2.17;;
10910;SDS011;5508;49.150;11.030;2022-07-29T13:38:47;3.10;;;2.25;;
10910;SDS011;5508;49.150;11.030;2022-07-29T13:41:48;3.42;;;2.00;;
10910;SDS011;5508;49.150;11.030;2022-07-29T13:44:49;5.63;;;2.20;;
10910;SDS011;5508;49.150;11.030;2022-07-29T13:47:51;6.75;;;2.42;;
10910;SDS011;5508;49.150;11.030;2022-07-29T13:50:52;3.80;;;2.25;;
10910;SDS011;5508;49.150;11.030;2022-07-29T13:53:52;2.45;;;2.25;;
10910;SDS011;5508;49.150;11.030;2022-07-29T13:56:53;3.83;;;2.17;;
10910;SDS011;5508;49.150;11.030;2022-07-29T13:59:53;2.80;;;2.33;;
10910;SDS011;5508;49.150;11.030;2022-07-29T14:02:54;4.30;;;2.42;;
10910;SDS011;5508;49.150;11.030;2022-07-29T14:05:55;3.90;;;2.72;;
10910;SDS011;5508;49.150;11.030;2022-07-29T14:08:56;5.43;;;2.33;;
10910;SDS011;5508;49.150;11.030;2022-07-29T14:11:56;2.15;;;1.95;;
10910;SDS011;5508;49.150;11.030;2022-07-29T14:14:57;3.72;;;2.20;;
10910;SDS011;5508;49.150;11.030;2022-07-29T14:17:57;3.15;;;2.40;;
10910;SDS011;5508;49.150;11.030;2022-07-29T14:20:58;5.05;;;2.70;;
10910;SDS011;5508;49.150;11.030;2022-07-29T14:23:59;6.70;;;2.70;;
10910;SDS011;5508;49.150;11.030;2022-07-29T14:26:59;4.28;;;2.67;;
10910;SDS011;5508;49.150;11.030;2022-07-29T14:30:00;7.90;;;2.47;;
10910;SDS011;5508;49.150;11.030;2022-07-29T14:33:00;5.93;;;3.33;;
10910;SDS011;5508;49.150;11.030;2022-07-29T14:36:01;3.25;;;2.50;;
10910;SDS011;5508;49.150;11.030;2022-07-29T14:39:03;3.22;;;2.75;;
10910;SDS011;5508;49.150;11.030;2022-07-29T14:42:07;3.30;;;2.63;;
10910;SDS011;5508;49.150;11.030;2022-07-29T14:45:08;5.10;;;2.58;;
10910;SDS011;5508;49.150;11.030;2022-07-29T14:48:09;4.32;;;1.98;;
10910;SDS011;5508;49.150;11.030;2022-07-29T14:51:11;3.42;;;2.40;;
10910;SDS011;5508;49.150;11.030;2022-07-29T14:54:11;2.63;;;2.33;;
10910;SDS011;5508;49.150;11.030;2022-07-29T14:57:12;3.20;;;2.17;;
10910;SDS011;5508;49.150;11.030;2022-07-29T15:00:13;7.97;;;2.25;;
10910;SDS011;5508;49.150;11.030;2022-07-29T15:03:13;2.40;;;1.70;;
10910;SDS011;5508;49.150;11.030;2022-07-29T15:06:14;3.85;;;2.10;;
10910;SDS011;5508;49.150;11.030;2022-07-29T15:09:15;4.05;;;2.50;;
10910;SDS011;5508;49.150;11.030;2022-07-29T15:12:15;4.68;;;2.20;;
10910;SDS011;5508;49.150;11.030;2022-07-29T15:15:16;5.15;;;2.15;;
10910;SDS011;5508;49.150;11.030;2022-07-29T15:18:17;2.50;;;2.30;;
10910;SDS011;5508;49.150;11.030;2022-07-29T15:21:17;2.53;;;2.20;;
10910;SDS011;5508;49.150;11.030;2022-07-29T15:24:18;3.53;;;2.47;;
10910;SDS011;5508;49.150;11.030;2022-07-29T15:27:19;2.67;;;2.47;;
10910;SDS011;5508;49.150;11.030;2022-07-29T15:30:19;3.00;;;2.20;;
10910;SDS011;5508;49.150;11.030;2022-07-29T15:33:20;3.35;;;2.60;;
10910;SDS011;5508;49.150;11.030;2022-07-29T15:36:20;3.13;;;2.30;;
10910;SDS011;5508;49.150;11.030;2022-07-29T15:39:21;6.25;;;2.83;;
10910;SDS011;5508;49.150;11.030;2022-07-29T15:42:22;3.53;;;2.50;;
10910;SDS011;5508;49.150;11.030;2022-07-29T15:45:22;4.47;;;2.53;;
10910;SDS011;5508;49.150;11.030;2022-07-29T15:48:23;2.40;;;2.20;;
10910;SDS011;5508;49.150;11.030;2022-07-29T15:51:24;6.20;;;2.85;;
10910;SDS011;5508;49.150;11.030;2022-07-29T15:54:24;6.68;;;2.55;;
10910;SDS011;5508;49.150;11.030;2022-07-29T15:57:25;3.45;;;1.88;;
10910;SDS011;5508;49.150;11.030;2022-07-29T16:00:26;2.70;;;1.52;;
10910;SDS011;5508;49.150;11.030;2022-07-29T16:03:26;1.90;;;1.70;;
10910;SDS011;5508;49.150;11.030;2022-07-29T16:06:27;3.17;;;1.75;;
10910;SDS011;5508;49.150;11.030;2022-07-29T16:09:27;2.63;;;1.90;;
10910;SDS011;5508;49.150;11.030;2022-07-29T16:12:28;2.35;;;1.70;;
10910;SDS011;5508;49.150;11.030;2022-07-29T16:15:29;2.58;;;1.50;;
10910;SDS011;5508;49.150;11.030;2022-07-29T16:18:29;1.92;;;1.75;;
10910;SDS011;5508;49.150;11.030;2022-07-29T16:21:30;1.90;;;1.48;;
10910;SDS011;5508;49.150;11.030;2022-07-29T16:24:31;1.50;;;1.33;;
10910;SDS011;5508;49.150;11.030;2022-07-29T16:27:32;3.42;;;1.90;;
10910;SDS011;5508;49.150;11.030;2022-07-29T16:30:33;2.78;;;1.70;;
10910;SDS011;5508;49.150;11.030;2022-07-29T16:33:34;1.63;;;1.52;;
10910;SDS011;5508;49.150;11.030;2022-07-29T16:36:35;2.63;;;1.63;;
10910;SDS011;5508;49.150;11.030;2022-07-29T16:39:35;1.60;;;1.30;;
10910;SDS011;5508;49.150;11.030;2022-07-29T16:42:36;1.38;;;1.27;;
10910;SDS011;5508;49.150;11.030;2022-07-29T16:45:36;1.42;;;1.33;;
10910;SDS011;5508;49.150;11.030;2022-07-29T16:48:37;2.00;;;1.60;;
10910;SDS011;5508;49.150;11.030;2022-07-29T16:51:38;2.17;;;1.40;;
10910;SDS011;5508;49.150;11.030;2022-07-29T16:54:38;3.95;;;1.40;;
10910;SDS011;5508;49.150;11.030;2022-07-29T16:57:39;1.33;;;1.20;;
10910;SDS011;5508;49.150;11.030;2022-07-29T17:00:42;1.40;;;1.30;;
10910;SDS011;5508;49.150;11.030;2022-07-29T17:03:43;2.80;;;1.40;;
10910;SDS011;5508;49.150;11.030;2022-07-29T17:07:02;2.40;;;1.60;;
10910;SDS011;5508;49.150;11.030;2022-07-29T17:10:03;1.60;;;1.50;;
10910;SDS011;5508;49.150;11.030;2022-07-29T17:13:04;2.23;;;1.47;;
10910;SDS011;5508;49.150;11.030;2022-07-29T17:16:04;3.47;;;1.47;;
10910;SDS011;5508;49.150;11.030;2022-07-29T17:19:05;2.00;;;1.53;;
10910;SDS011;5508;49.150;11.030;2022-07-29T17:22:05;1.73;;;1.33;;
10910;SDS011;5508;49.150;11.030;2022-07-29T17:25:06;2.00;;;1.57;;
10910;SDS011;5508;49.150;11.030;2022-07-29T17:28:07;2.80;;;1.47;;
10910;SDS011;5508;49.150;11.030;2022-07-29T17:31:08;3.23;;;1.53;;
10910;SDS011;5508;49.150;11.030;2022-07-29T17:34:08;1.30;;;1.20;;
10910;SDS011;5508;49.150;11.030;2022-07-29T17:37:09;2.40;;;1.50;;
10910;SDS011;5508;49.150;11.030;2022-07-29T17:40:10;1.60;;;1.47;;
10910;SDS011;5508;49.150;11.030;2022-07-29T17:43:11;1.93;;;1.40;;
10910;SDS011;5508;49.150;11.030;2022-07-29T17:46:12;1.60;;;1.50;;
10910;SDS011;5508;49.150;11.030;2022-07-29T17:49:13;2.23;;;1.50;;
10910;SDS011;5508;49.150;11.030;2022-07-29T17:52:13;1.53;;;1.43;;
10910;SDS011;5508;49.150;11.030;2022-07-29T17:55:16;3.00;;;1.70;;
10910;SDS011;5508;49.150;11.030;2022-07-29T17:58:17;3.13;;;1.90;;
10910;SDS011;5508;49.150;11.030;2022-07-29T18:01:18;2.87;;;2.07;;
10910;SDS011;5508;49.150;11.030;2022-07-29T18:04:19;3.23;;;2.10;;
10910;SDS011;5508;49.150;11.030;2022-07-29T18:07:22;2.90;;;2.70;;
10910;SDS011;5508;49.150;11.030;2022-07-29T18:10:23;3.33;;;2.77;;
10910;SDS011;5508;49.150;11.030;2022-07-29T18:13:24;2.90;;;2.60;;
10910;SDS011;5508;49.150;11.030;2022-07-29T18:16:25;5.60;;;2.57;;
10910;SDS011;5508;49.150;11.030;2022-07-29T18:19:25;2.80;;;2.50;;
10910;SDS011;5508;49.150;11.030;2022-07-29T18:22:26;2.97;;;2.67;;
10910;SDS011;5508;49.150;11.030;2022-07-29T18:25:27;2.93;;;2.57;;
10910;SDS011;5508;49.150;11.030;2022-07-29T18:28:28;2.73;;;2.53;;
10910;SDS011;5508;49.150;11.030;2022-07-29T18:31:29;8.87;;;3.00;;
10910;SDS011;5508;49.150;11.030;2022-07-29T18:34:29;4.73;;;2.77;;
10910;SDS011;5508;49.150;11.030;2022-07-29T18:37:30;3.73;;;2.40;;
10910;SDS011;5508;49.150;11.030;2022-07-29T18:40:32;3.23;;;2.47;;
10910;SDS011;5508;49.150;11.030;2022-07-29T18:43:33;3.00;;;2.80;;
10910;SDS011;5508;49.150;11.030;2022-07-29T18:46:34;3.30;;;2.77;;
10910;SDS011;5508;49.150;11.030;2022-07-29T18:49:34;3.83;;;3.20;;
10910;SDS011;5508;49.150;11.030;2022-07-29T18:52:35;6.57;;;3.07;;
10910;SDS011;5508;49.150;11.030;2022-07-29T18:55:36;4.03;;;2.70;;
10910;SDS011;5508;49.150;11.030;2022-07-29T18:58:36;4.33;;;3.23;;
10910;SDS011;5508;49.150;11.030;2022-07-29T19:01:38;3.20;;;2.90;;
10910;SDS011;5508;49.150;11.030;2022-07-29T19:04:38;2.63;;;2.43;;
10910;SDS011;5508;49.150;11.030;2022-07-29T19:07:40;5.07;;;3.70;;